Flight Track Log - Related Links

Times and Time Zones

All times are in EST time to prevent confusion due to time zone crossing. See the DAL949 flight status page for this flight to view local times or setup timezone preferences in your user account.

Time Position Orientation Groundspeed Altitude Reporting Facility
EST Latitude Longitude Course Direction KTS MPH feet Rate Location/Type
Fri 07:10:13 42.9500 -71.4333 324° Northwest 147 169 1,100  Level KA90
Fri 07:11:02 42.9833 -71.4667 324° Northwest 195 224 3,300 2,828 Climbing KA90
Fri 07:11:40 43.0092 -71.4833 335° Northwest 234 269 5,200 3,061 Climbing Boston Center
Fri 07:12:40 43.0567 -71.4286 40° Northeast 208 239 8,300 2,500 Climbing Boston Center
Fri 07:13:40 43.0578 -71.3206 89° East 284 327 10,200 1,650 Climbing Boston Center
Fri 07:14:40 43.0603 -71.1756 89° East 344 396 11,600 1,550 Climbing Boston Center
Fri 07:15:40 43.0686 -70.9992 86° East 412 474 13,300 1,850 Climbing Boston Center
Fri 07:16:40 42.9900 -70.8761 131° Southeast 409 471 15,300 2,150 Climbing Boston Center
Fri 07:17:40 42.8822 -70.9214 197° South 329 379 17,600 1,700 Climbing Boston Center
Fri 07:18:40 42.7786 -70.9833 204° Southwest 363 418 18,700 1,300 Climbing Boston Center
Fri 07:19:40 42.6856 -71.0278 199° South 394 453 20,200 1,400 Climbing Boston Center
Fri 07:20:40 42.5694 -71.0842 200° South 423 487 21,500 1,350 Climbing Boston Center
Fri 07:21:40 42.4831 -71.1844 221° Southwest 420 483 22,900 1,600 Climbing Boston Center
Fri 07:22:40 42.4553 -71.3258 255° West 375 432 24,700 1,800 Climbing Boston Center
Fri 07:23:40 42.4294 -71.4669 256° West 375 432 26,500 1,950 Climbing Boston Center
Fri 07:24:40 42.3933 -71.6164 252° West 385 443 28,600 1,750 Climbing Boston Center
Fri 07:25:40 42.3650 -71.7489 254° West 385 443 30,000 1,300 Climbing Boston Center
Fri 07:26:40 42.3386 -71.8839 255° West 380 437 31,200 1,050 Climbing Boston Center
Fri 07:27:40 42.3119 -72.0161 255° West 375 432 32,100 1,000 Climbing Boston Center
Fri 07:28:40 42.2833 -72.1428 253° West 375 432 33,200 750 Climbing Boston Center
Fri 07:29:40 42.2564 -72.2689 254° West 364 419 33,600 400 Climbing Boston Center
Fri 07:30:40 42.2294 -72.4008 255° West 364 419 34,000 200 Climbing Boston Center
Fri 07:31:40 42.2003 -72.5269 253° West 359 413 34,000  Level Boston Center
Fri 07:32:40 42.1750 -72.6558 255° West 359 413 34,000  Level Boston Center
Fri 07:33:40 42.1269 -72.7761 242° Southwest 365 420 34,000  Level Boston Center
Fri 07:34:40 42.0767 -72.8625 232° Southwest 370 426 34,000  Level Boston Center
Fri 07:35:40 42.0031 -72.9681 227° Southwest 365 420 34,000  Level Boston Center
Fri 07:36:40 41.9192 -73.0844 226° Southwest 385 443 34,000  Level Boston Center
Fri 07:37:40 41.8456 -73.1814 224° Southwest 385 443 34,000  Level Boston Center
Fri 07:39:50 41.6908 -73.3797 224° Southwest 387 445 34,000  Level New York Center
Fri 07:40:52 41.6158 -73.4794 225° Southwest 382 440 34,000  Level New York Center
Fri 07:41:49 41.5447 -73.5736 225° Southwest 377 434 34,000  Level New York Center
Fri 07:42:51 41.4697 -73.6700 224° Southwest 377 434 34,000  Level New York Center
Fri 07:43:50 41.3942 -73.7717 225° Southwest 377 434 34,000  Level New York Center
Fri 07:44:50 41.3167 -73.8706 224° Southwest 384 442 34,000  Level New York Center
Fri 07:45:51 41.2411 -73.9717 225° Southwest 384 442 34,000  Level New York Center
Fri 07:46:52 41.1633 -74.0728 224° Southwest 389 448 34,000  Level New York Center
Fri 07:47:49 41.0936 -74.1794 229° Southwest 394 453 34,000  Level New York Center
Fri 07:48:51 41.0217 -74.2886 229° Southwest 394 453 34,000  Level New York Center
Fri 07:49:51 40.9539 -74.3950 230° Southwest 394 453 34,000  Level New York Center
Fri 07:50:50 40.8836 -74.5092 231° Southwest 400 460 34,000  Level New York Center
Fri 07:51:52 40.8133 -74.6206 230° Southwest 400 460 34,000  Level New York Center
Fri 07:52:50 40.7453 -74.7289 230° Southwest 400 460 34,000  Level New York Center
Fri 07:53:51 40.6769 -74.8400 231° Southwest 395 455 34,000  Level New York Center
Fri 07:54:52 40.6083 -74.9508 231° Southwest 395 455 34,000  Level New York Center
Fri 07:55:50 40.5400 -75.0611 231° Southwest 395 455 34,000  Level New York Center
Fri 07:56:50 40.4603 -75.1844 230° Southwest 395 455 34,000  Level New York Center
Fri 07:57:51 40.3936 -75.2919 231° Southwest 395 455 34,000  Level New York Center
Fri 07:58:50 40.3294 -75.3911 230° Southwest 395 455 34,000  Level New York Center
Fri 07:59:50 40.2539 -75.5086 230° Southwest 389 448 34,000  Level New York Center
Fri 08:00:51 40.1997 -75.6081 235° Southwest 389 448 34,000  Level New York Center
Fri 08:01:51 40.1408 -75.7264 237° Southwest 379 436 34,000  Level New York Center
Fri 08:02:49 40.0817 -75.8414 236° Southwest 385 443 34,000  Level New York Center
Fri 08:03:51 40.0133 -75.9747 236° Southwest 397 457 34,000  Level New York Center
Fri 08:04:50 39.9542 -76.0867 235° Southwest 392 451 34,000  Level New York Center
Fri 08:05:50 39.8944 -76.2067 237° Southwest 392 451 34,000  Level New York Center
Fri 08:06:50 39.8389 -76.3267 239° Southwest 386 444 34,000  Level New York Center
Fri 08:07:48 39.7775 -76.4069 225° Southwest 393 452 34,000  Level Washington Center
Fri 08:08:45 39.6997 -76.5083 225° Southwest 393 452 34,000  Level Washington Center
Fri 08:09:46 39.6178 -76.6125 224° Southwest 403 464 34,000  Level Washington Center
Fri 08:10:46 39.5397 -76.7136 225° Southwest 403 464 34,000  Level Washington Center
Fri 08:11:47 39.4617 -76.8119 224° Southwest 403 464 34,000  Level Washington Center
Fri 08:12:46 39.3856 -76.9128 226° Southwest 403 464 34,000  Level Washington Center
Fri 08:13:47 39.3094 -77.0158 226° Southwest 398 458 34,000  Level Washington Center
Fri 08:14:47 39.2350 -77.1217 228° Southwest 398 458 34,000  Level Washington Center
Fri 08:15:46 39.1567 -77.2244 226° Southwest 398 458 34,000  Level Washington Center
Fri 08:16:46 39.0761 -77.3214 223° Southwest 398 458 34,000  Level Washington Center
Fri 08:17:47 38.9997 -77.4186 225° Southwest 398 458 34,000  Level Washington Center
Fri 08:18:48 38.9208 -77.5153 224° Southwest 398 458 34,000  Level Washington Center
Fri 08:19:45 38.8336 -77.6303 226° Southwest 398 458 34,000  Level Washington Center
Fri 08:20:47 38.7633 -77.7217 225° Southwest 398 458 34,000  Level Washington Center
Fri 08:21:48 38.6739 -77.8253 222° Southwest 398 458 34,000  Level Washington Center
Fri 08:22:45 38.6072 -77.9269 230° Southwest 404 465 34,000  Level Washington Center
Fri 08:23:47 38.5403 -78.0389 233° Southwest 409 471 34,000  Level Washington Center
Fri 08:24:47 38.4733 -78.1508 233° Southwest 409 471 34,000  Level Washington Center
Fri 08:25:48 38.4061 -78.2650 233° Southwest 409 471 34,000  Level Washington Center
Fri 08:26:45 38.3369 -78.3817 233° Southwest 409 471 34,000  Level Washington Center
Fri 08:27:46 38.2717 -78.4903 233° Southwest 404 465 34,000  Level Washington Center
Fri 08:28:46 38.2083 -78.6094 236° Southwest 404 465 34,000  Level Washington Center
Fri 08:29:47 38.1342 -78.7358 233° Southwest 404 465 34,000  Level Washington Center
Fri 08:30:48 38.0644 -78.8464 231° Southwest 404 465 34,000  Level Washington Center
Fri 08:31:46 37.9967 -78.9567 232° Southwest 404 465 34,000  Level Washington Center
Fri 08:32:46 37.9289 -79.0694 233° Southwest 404 465 34,000  Level Washington Center
Fri 08:33:47 37.8636 -79.1664 230° Southwest 404 465 34,000  Level Washington Center
Fri 08:34:48 37.7872 -79.2706 227° Southwest 409 471 34,000  Level Washington Center
Fri 08:35:45 37.6981 -79.3897 227° Southwest 419 482 34,000  Level Washington Center
Fri 08:36:46 37.6303 -79.4858 228° Southwest 419 482 34,000  Level Washington Center
Fri 08:37:46 37.5453 -79.5994 227° Southwest 411 473 34,000  Level Washington Center
Fri 08:38:47 37.4731 -79.6950 226° Southwest 411 473 34,000  Level Washington Center
Fri 08:39:48 37.3986 -79.8008 228° Southwest 411 473 34,000  Level Washington Center
Fri 08:40:46 37.3197 -79.9089 227° Southwest 416 479 34,000  Level Washington Center
Fri 08:42:32 37.1814 -80.0922 227° Southwest 407 468 34,000  Level Atlanta Center
Fri 08:43:32 37.0975 -80.2058 227° Southwest 407 468 34,000  Level Atlanta Center
Fri 08:44:32 37.0172 -80.3136 227° Southwest 407 468 34,000  Level Atlanta Center
Fri 08:45:32 36.9392 -80.4186 227° Southwest 407 468 34,000  Level Atlanta Center
Fri 08:46:32 36.8608 -80.5233 227° Southwest 407 468 34,000  Level Atlanta Center
Fri 08:47:32 36.7883 -80.6172 226° Southwest 413 475 34,000  Level Atlanta Center
Fri 08:48:32 36.7122 -80.7217 228° Southwest 407 468 34,000  Level Atlanta Center
Fri 08:49:32 36.6256 -80.8389 227° Southwest 407 468 34,000  Level Atlanta Center
Fri 08:50:32 36.5469 -80.9403 226° Southwest 407 468 34,000  Level Atlanta Center
Fri 08:51:32 36.4661 -81.0494 227° Southwest 407 468 34,000  Level Atlanta Center
Fri 08:52:32 36.3892 -81.1503 227° Southwest 412 474 34,000  Level Atlanta Center
Fri 08:53:32 36.3083 -81.2561 227° Southwest 407 468 34,000  Level Atlanta Center
Fri 08:54:32 36.2292 -81.3592 226° Southwest 407 468 34,000  Level Atlanta Center
Fri 08:55:32 36.1522 -81.4594 226° Southwest 407 468 34,000  Level Atlanta Center
Fri 08:56:32 36.0708 -81.5675 227° Southwest 412 474 34,000  Level Atlanta Center
Fri 08:57:32 35.9917 -81.6700 226° Southwest 423 487 34,000  Level Atlanta Center
Fri 08:58:32 35.9122 -81.7722 226° Southwest 418 481 34,000  Level Atlanta Center
Fri 08:59:32 35.8306 -81.8769 226° Southwest 418 481 34,000  Level Atlanta Center
Fri 09:00:32 35.7489 -81.9789 225° Southwest 418 481 34,000  Level Atlanta Center
Fri 09:01:32 35.6692 -82.0831 227° Southwest 418 481 34,000  Level Atlanta Center
Fri 09:02:32 35.5978 -82.1744 226° Southwest 418 481 34,000  Level Atlanta Center
Fri 09:03:32 35.5178 -82.2756 226° Southwest 413 475 34,000  Level Atlanta Center
Fri 09:04:32 35.4378 -82.3767 226° Southwest 413 475 34,000  Level Atlanta Center
Fri 09:05:32 35.3578 -82.4803 227° Southwest 413 475 34,000 -650 Level Atlanta Center
Fri 09:06:32 35.2714 -82.5761 222° Southwest 413 475 32,700 -1,250 Descending Atlanta Center
Fri 09:07:32 35.1828 -82.6664 220° Southwest 418 481 31,500 -1,150 Descending Atlanta Center
Fri 09:08:32 35.0942 -82.7694 224° Southwest 424 488 30,400 -1,050 Descending Atlanta Center
Fri 09:09:32 35.0033 -82.8672 221° Southwest 430 495 29,400 -1,000 Descending Atlanta Center
Fri 09:10:32 34.9019 -82.9725 220° Southwest 438 504 28,400 -1,100 Descending Atlanta Center
Fri 09:11:32 34.8067 -83.0672 219° Southwest 438 504 27,200 -1,050 Descending Atlanta Center
Fri 09:12:32 34.7178 -83.1719 224° Southwest 451 519 26,300 -850 Descending Atlanta Center
Fri 09:13:32 34.6244 -83.2689 221° Southwest 445 512 25,500 -800 Descending Atlanta Center
Fri 09:14:32 34.5333 -83.3656 221° Southwest 445 512 24,700 -850 Descending Atlanta Center
Fri 09:15:32 34.4442 -83.4619 222° Southwest 440 506 23,800 -1,200 Descending Atlanta Center
Fri 09:16:32 34.3547 -83.5556 221° Southwest 435 501 22,300 -2,050 Descending Atlanta Center
Fri 09:17:32 34.2717 -83.6517 224° Southwest 429 494 19,700 -2,350 Descending Atlanta Center
Fri 09:18:32 34.1947 -83.7272 219° Southwest 417 480 17,600 -2,350 Descending Atlanta Center
Fri 09:19:32 34.1156 -83.8131 222° Southwest 392 451 15,000 -2,410 Descending Atlanta Center
Fri 09:20:34 34.0333 -83.9000 221° Southwest 364 419 12,700 -1,552 Descending Atlanta TRACON
Fri 09:21:28 33.9667 -83.9833 226° Southwest 367 422 12,000 -368 Descending Atlanta TRACON
Fri 09:22:28 33.8833 -84.0667 220° Southwest 366 421 12,000  Level Atlanta TRACON
Fri 09:23:22 33.8333 -84.1500 234° Southwest 364 419 12,000  Level Atlanta TRACON
Fri 09:24:23 33.7833 -84.2500 239° Southwest 305 351 12,000 -157 Level Atlanta TRACON
Fri 09:25:17 33.7500 -84.3167 239° Southwest 239 275 11,700 -1,167 Descending Atlanta TRACON
Fri 09:26:11 33.7333 -84.3833 253° West 239 275 9,900 -1,889 Descending Atlanta TRACON
Fri 09:27:05 33.7333 -84.4500 270° West 232 267 8,300 -1,737 Descending Atlanta TRACON
Fri 09:28:05 33.7333 -84.5167 270° West 222 255 6,600 -1,600 Descending Atlanta TRACON
Fri 09:29:05 33.7167 -84.6000 257° West 218 251 5,100 -1,526 Descending Atlanta TRACON
Fri 09:29:59 33.6833 -84.5833 157° South 217 250 3,700 -1,421 Descending Atlanta TRACON
Fri 09:30:59 33.6500 -84.5167 121° Southeast 188 216 2,400 -1,050 Descending Atlanta TRACON
Fri 09:31:59 33.6500 -84.4667 90° East 144 166 1,600 -783 Descending Atlanta TRACON
Fri 09:32:54 33.6500 -84.4333 90° East 79 91 900 -764 Descending Atlanta TRACON
Fri 09:34:00 33.6367 -84.4281 64° Northeast  Level Estimated
Fri 09:41:00 33.6367 -84.4281 64° Northeast  Level Estimated

Login

Don't have an account? Register now (free) for customized features, flight alerts, and more!